Time;durP1;ratioP1;P1;durP2;ratioP2;P2;SDS_P1;SDS_P2;PMS_P1;PMS_P2;Temp;Humidity;BMP_temperature;BMP_pressure;BME280_temperature;BME280_humidity;BME280_pressure;Samples;Min_cycle;Max_cycle;Signal;HPM_P1;HPM_P2
2022/08/23 00:00:02;;;;;;;;;;;;;;;;;;5073691;28;20356;-77
2022/08/23 00:02:32;;;;;;;;;;;;;;;;;;5073510;28;19913;-76
2022/08/23 00:04:57;;;;;;;;;;;;;;;;;;5073348;28;19916;-76
2022/08/23 00:07:22;;;;;;;;;;;;;;;;;;5039140;28;19928;-76
2022/08/23 00:09:48;;;;;;;;;;;;;;;;;;5055629;28;20391;-76
2022/08/23 00:12:13;;;;;;;;;;;;;;;;;;5073299;28;20003;-77
2022/08/23 00:14:38;;;;;;;;;;;;;;;;;;5072979;28;19947;-76
2022/08/23 00:17:04;;;;;;;;;;;;;;;;;;5073311;28;19917;-77
2022/08/23 00:19:30;;;;;;;;;;;;;;;;;;5073276;28;20431;-76
2022/08/23 00:21:55;;;;;;;;;;;;;;;;;;5055457;28;19920;-77
2022/08/23 00:24:20;;;;;;;;;;;;;;;;;;5072833;28;19949;-77
2022/08/23 00:26:46;;;;;;;;;;;;;;;;;;5072992;28;20295;-76
2022/08/23 00:29:11;;;;;;;;;;;;;;;;;;5055274;28;19912;-75
2022/08/23 00:31:36;;;;;;;;;;;;;;;;;;5055191;28;20283;-77
2022/08/23 00:34:02;;;;;;;;;;;;;;;;;;5054765;28;20298;-76
2022/08/23 00:36:28;;;;;;;;;;;;;;;;;;5038576;28;19920;-77
2022/08/23 00:38:53;;;;;;;;;;;;;;;;;;5038553;28;19999;-77
2022/08/23 00:41:19;;;;;;;;;;;;;;;;;;5055051;28;19947;-77
2022/08/23 00:49:13;;;;;;;;;;;;;;;;;;5038435;28;19913;-77
2022/08/23 00:51:38;;;;;;;;;;;;;;;;;;5038409;28;19972;-75
2022/08/23 00:54:04;;;;;;;;;;;;;;;;;;5054422;28;19960;-76
2022/08/23 00:56:29;;;;;;;;;;;;;;;;;;5054527;28;19934;-76
2022/08/23 00:58:54;;;;;;;;;;;;;;;;;;5072464;28;19920;-76
2022/08/23 01:01:20;;;;;;;;;;;;;;;;;;5054789;28;19913;-76
2022/08/23 01:03:45;;;;;;;;;;;;;;;;;;5037837;28;20387;-75
2022/08/23 01:06:10;;;;;;;;;;;;;;;;;;5072850;28;19912;-76
2022/08/23 01:08:36;;;;;;;;;;;;;;;;;;5072414;28;20003;-75
2022/08/23 01:11:02;;;;;;;;;;;;;;;;;;5054592;28;19960;-75
2022/08/23 01:13:28;;;;;;;;;;;;;;;;;;5054534;28;19913;-77
2022/08/23 01:15:54;;;;;;;;;;;;;;;;;;5054405;28;19912;-76
2022/08/23 01:18:19;;;;;;;;;;;;;;;;;;5054431;28;19919;-76
2022/08/23 01:20:45;;;;;;;;;;;;;;;;;;5054351;28;19916;-76
2022/08/23 01:23:10;;;;;;;;;;;;;;;;;;5071949;28;20017;-77
2022/08/23 01:25:35;;;;;;;;;;;;;;;;;;5054410;28;19913;-76
2022/08/23 01:28:01;;;;;;;;;;;;;;;;;;5037923;28;19986;-77
2022/08/23 01:30:27;;;;;;;;;;;;;;;;;;5054458;28;20299;-77
2022/08/23 01:32:53;;;;;;;;;;;;;;;;;;5037484;28;19920;-76
2022/08/23 01:35:19;;;;;;;;;;;;;;;;;;5037519;28;19926;-77
2022/08/23 01:37:44;;;;;;;;;;;;;;;;;;5054385;28;19916;-76
2022/08/23 01:40:10;;;;;;;;;;;;;;;;;;5054380;28;19908;-77
2022/08/23 01:42:35;;;;;;;;;;;;;;;;;;5053916;28;19967;-77
2022/08/23 01:45:01;;;;;;;;;;;;;;;;;;5037882;28;19966;-75
2022/08/23 01:47:27;;;;;;;;;;;;;;;;;;5055200;28;19944;-77
2022/08/23 01:49:52;;;;;;;;;;;;;;;;;;5054920;28;20340;-77
2022/08/23 01:52:18;;;;;;;;;;;;;;;;;;5021841;28;20343;-77
2022/08/23 01:54:43;;;;;;;;;;;;;;;;;;5037691;28;19915;-77
2022/08/23 01:57:09;;;;;;;;;;;;;;;;;;5037994;28;19917;-77
2022/08/23 01:59:35;;;;;;;;;;;;;;;;;;5038970;28;19913;-75
2022/08/23 02:02:01;;;;;;;;;;;;;;;;;;5041777;28;20380;-76
2022/08/23 02:04:26;;;;;;;;;;;;;;;;;;5057996;28;20439;-76
2022/08/23 02:06:52;;;;;;;;;;;;;;;;;;5025256;28;20012;-77
2022/08/23 02:09:20;;;;;;;;;;;;;;;;;;5058306;28;19916;-76
2022/08/23 02:11:45;;;;;;;;;;;;;;;;;;5076087;28;19912;-75
2022/08/23 02:14:11;;;;;;;;;;;;;;;;;;5057714;28;19961;-77
2022/08/23 02:16:54;;;;;;;;;;;;;;;;;;5057941;28;19916;-75
2022/08/23 02:19:20;;;;;;;;;;;;;;;;;;5075555;28;20401;-76
2022/08/23 02:21:45;;;;;;;;;;;;;;;;;;5075610;28;19930;-78
2022/08/23 02:24:11;;;;;;;;;;;;;;;;;;5075283;28;19908;-77
2022/08/23 02:26:36;;;;;;;;;;;;;;;;;;5057494;28;19916;-77
2022/08/23 02:29:02;;;;;;;;;;;;;;;;;;5057335;28;19938;-74
2022/08/23 02:31:28;;;;;;;;;;;;;;;;;;5040717;28;20375;-77
2022/08/23 02:33:54;;;;;;;;;;;;;;;;;;5040512;28;19915;-76
2022/08/23 02:36:19;;;;;;;;;;;;;;;;;;5058185;28;19916;-76
2022/08/23 02:38:45;;;;;;;;;;;;;;;;;;5058532;28;19912;-76
2022/08/23 02:41:11;;;;;;;;;;;;;;;;;;5058484;28;20061;-77
2022/08/23 02:43:36;;;;;;;;;;;;;;;;;;5058259;28;19920;-78
2022/08/23 02:46:05;;;;;;;;;;;;;;;;;;5059113;28;19918;-77
2022/08/23 02:48:31;;;;;;;;;;;;;;;;;;5043578;28;19939;-76
2022/08/23 02:51:02;;;;;;;;;;;;;;;;;;5043565;28;19920;-76
2022/08/23 02:53:28;;;;;;;;;;;;;;;;;;5059858;28;20315;-75
2022/08/23 02:55:54;;;;;;;;;;;;;;;;;;5059522;28;19920;-77
2022/08/23 02:58:19;;;;;;;;;;;;;;;;;;5042587;28;19921;-76
2022/08/23 03:00:45;;;;;;;;;;;;;;;;;;5077613;28;19920;-75
2022/08/23 03:03:11;;;;;;;;;;;;;;;;;;5059728;28;19920;-77
2022/08/23 03:05:36;;;;;;;;;;;;;;;;;;5043541;28;19908;-75
2022/08/23 03:08:02;;;;;;;;;;;;;;;;;;5059238;28;20402;-75
2022/08/23 03:10:31;;;;;;;;;;;;;;;;;;5025834;28;20390;-76
2022/08/23 03:12:58;;;;;;;;;;;;;;;;;;5041318;28;19922;-76
2022/08/23 03:15:24;;;;;;;;;;;;;;;;;;5058598;28;20011;-76
2022/08/23 03:17:49;;;;;;;;;;;;;;;;;;5058271;28;19959;-76
2022/08/23 03:20:15;;;;;;;;;;;;;;;;;;5059952;28;20003;-76
2022/08/23 03:22:40;;;;;;;;;;;;;;;;;;5058231;28;19913;-77
2022/08/23 03:25:05;;;;;;;;;;;;;;;;;;5040971;28;20315;-77
2022/08/23 03:27:42;;;;;;;;;;;;;;;;;;5058038;28;20016;-75
2022/08/23 03:30:08;;;;;;;;;;;;;;;;;;5076069;28;19920;-76
2022/08/23 03:32:34;;;;;;;;;;;;;;;;;;5058766;28;19913;-77
2022/08/23 03:34:59;;;;;;;;;;;;;;;;;;5058734;28;19923;-76
2022/08/23 03:37:24;;;;;;;;;;;;;;;;;;5043810;28;19939;-75
2022/08/23 03:39:51;;;;;;;;;;;;;;;;;;5060654;28;20413;-77
2022/08/23 03:42:17;;;;;;;;;;;;;;;;;;5043978;28;19912;-76
2022/08/23 03:44:42;;;;;;;;;;;;;;;;;;5060820;28;19920;-76
2022/08/23 03:47:07;;;;;;;;;;;;;;;;;;5061010;28;19916;-76
2022/08/23 03:49:34;;;;;;;;;;;;;;;;;;5062545;28;19912;-76
2022/08/23 03:51:59;;;;;;;;;;;;;;;;;;5025564;28;20044;-78
2022/08/23 03:54:24;;;;;;;;;;;;;;;;;;5041436;28;19947;-75
2022/08/23 03:56:52;;;;;;;;;;;;;;;;;;5099191;22;19989;-75
2022/08/23 03:59:18;;;;;;;;;;;;;;;;;;5076514;28;19908;-75
2022/08/23 04:01:43;;;;;;;;;;;;;;;;;;5060083;28;19963;-74
2022/08/23 04:04:09;;;;;;;;;;;;;;;;;;5075986;28;19912;-76
2022/08/23 04:06:38;;;;;;;;;;;;;;;;;;5059599;28;19912;-75
2022/08/23 04:09:03;;;;;;;;;;;;;;;;;;5094197;28;20389;-76
2022/08/23 04:11:30;;;;;;;;;;;;;;;;;;5059287;28;19916;-76
2022/08/23 04:14:00;;;;;;;;;;;;;;;;;;5075145;28;19912;-75
2022/08/23 04:16:27;;;;;;;;;;;;;;;;;;5075805;28;20294;-76
2022/08/23 04:18:53;;;;;;;;;;;;;;;;;;5076016;28;19912;-75
2022/08/23 04:21:21;;;;;;;;;;;;;;;;;;5075904;28;19963;-76
2022/08/23 04:23:46;;;;;;;;;;;;;;;;;;5093348;28;19912;-75
2022/08/23 04:26:12;;;;;;;;;;;;;;;;;;5059176;28;19916;-75
2022/08/23 04:28:39;;;;;;;;;;;;;;;;;;5076370;28;19912;-75
2022/08/23 04:31:07;;;;;;;;;;;;;;;;;;5076147;28;19912;-74
2022/08/23 04:33:34;;;;;;;;;;;;;;;;;;5075503;28;20445;-76
2022/08/23 04:35:59;;;;;;;;;;;;;;;;;;5076058;28;19960;-74
2022/08/23 04:38:26;;;;;;;;;;;;;;;;;;5076250;28;20035;-75
2022/08/23 04:43:39;;;;;;;;;;;;;;;;;;5074689;28;19912;-76
2022/08/23 04:46:04;;;;;;;;;;;;;;;;;;5093378;28;20306;-74
2022/08/23 04:48:34;;;;;;;;;;;;;;;;;;5058890;28;20345;-74
2022/08/23 04:50:59;;;;;;;;;;;;;;;;;;5058764;28;20222;-75
2022/08/23 04:53:27;;;;;;;;;;;;;;;;;;5042298;28;20377;-75
2022/08/23 04:56:02;;;;;;;;;;;;;;;;;;5075465;28;20013;-75
2022/08/23 04:58:28;;;;;;;;;;;;;;;;;;5076311;28;19912;-74
2022/08/23 05:00:53;;;;;;;;;;;;;;;;;;5058772;28;19912;-74
2022/08/23 05:03:23;;;;;;;;;;;;;;;;;;5074070;28;19916;-75
2022/08/23 05:05:49;;;;;;;;;;;;;;;;;;5059142;28;20359;-75
2022/08/23 05:08:17;;;;;;;;;;;;;;;;;;5074934;28;20090;-76
2022/08/23 05:10:43;;;;;;;;;;;;;;;;;;5058781;28;19912;-75
2022/08/23 05:13:08;;;;;;;;;;;;;;;;;;5057704;28;19919;-75
2022/08/23 05:15:34;;;;;;;;;;;;;;;;;;5092617;28;19912;-75
2022/08/23 05:18:03;;;;;;;;;;;;;;;;;;5058421;28;19915;-73
2022/08/23 05:20:30;;;;;;;;;;;;;;;;;;5074479;28;19919;-75
2022/08/23 05:22:55;;;;;;;;;;;;;;;;;;5057246;28;20291;-75
2022/08/23 05:25:48;;;;;;;;;;;;;;;;;;5058025;28;19919;-75
2022/08/23 05:28:11;;;;;;;;;;;;;;;;;;5074009;28;20107;-75
2022/08/23 05:30:37;;;;;;;;;;;;;;;;;;5073981;28;19912;-75
2022/08/23 05:33:03;;;;;;;;;;;;;;;;;;5073731;28;19919;-75
2022/08/23 05:35:29;;;;;;;;;;;;;;;;;;5056934;28;19912;-75
2022/08/23 05:37:54;;;;;;;;;;;;;;;;;;5074433;28;19916;-74
2022/08/23 05:40:20;;;;;;;;;;;;;;;;;;5057944;28;20435;-76
2022/08/23 05:42:59;;;;;;;;;;;;;;;;;;5077074;28;19936;-75
2022/08/23 05:45:27;;;;;;;;;;;;;;;;;;5042579;28;19912;-76
2022/08/23 05:47:53;;;;;;;;;;;;;;;;;;5074874;28;20206;-74
2022/08/23 05:50:44;;;;;;;;;;;;;;;;;;5089443;28;19918;-75
2022/08/23 05:53:10;;;;;;;;;;;;;;;;;;5057575;28;19999;-75
2022/08/23 05:55:37;;;;;;;;;;;;;;;;;;5074111;28;19923;-76
2022/08/23 05:58:14;;;;;;;;;;;;;;;;;;5058777;28;20356;-75
2022/08/23 06:00:39;;;;;;;;;;;;;;;;;;5057211;28;19915;-75
2022/08/23 06:03:05;;;;;;;;;;;;;;;;;;5073490;28;20244;-75
2022/08/23 06:05:30;;;;;;;;;;;;;;;;;;5073701;28;20284;-76
2022/08/23 06:07:57;;;;;;;;;;;;;;;;;;5057587;28;20379;-76
2022/08/23 06:10:24;;;;;;;;;;;;;;;;;;5057363;28;20047;-75
2022/08/23 06:12:58;;;;;;;;;;;;;;;;;;5073539;28;19998;-76
2022/08/23 06:15:23;;;;;;;;;;;;;;;;;;5073952;28;20009;-74
2022/08/23 06:17:49;;;;;;;;;;;;;;;;;;5073726;28;19916;-76
2022/08/23 06:20:15;;;;;;;;;;;;;;;;;;5074059;28;19912;-75
2022/08/23 06:23:01;;;;;;;;;;;;;;;;;;5091456;28;19909;-77
2022/08/23 06:25:27;;;;;;;;;;;;;;;;;;5056984;28;19912;-76
2022/08/23 06:28:00;;;;;;;;;;;;;;;;;;5057101;28;20392;-75
2022/08/23 06:30:26;;;;;;;;;;;;;;;;;;5073696;28;19951;-75
2022/08/23 06:32:54;;;;;;;;;;;;;;;;;;5091480;28;19912;-74
2022/08/23 06:35:38;;;;;;;;;;;;;;;;;;5092102;28;19918;-76
2022/08/23 06:38:09;;;;;;;;;;;;;;;;;;5073589;28;19916;-76
2022/08/23 06:41:10;;;;;;;;;;;;;;;;;;5029310;28;19920;-76
2022/08/23 06:43:54;;;;;;;;;;;;;;;;;;5086283;28;19918;-76
2022/08/23 06:46:31;;;;;;;;;;;;;;;;;;5058940;28;20440;-76
2022/08/23 06:48:58;;;;;;;;;;;;;;;;;;5094854;28;19912;-74
2022/08/23 06:51:23;;;;;;;;;;;;;;;;;;5076503;28;19908;-76
2022/08/23 06:53:55;;;;;;;;;;;;;;;;;;5076533;28;20371;-77
2022/08/23 06:56:39;;;;;;;;;;;;;;;;;;5094660;28;19996;-76
2022/08/23 06:59:11;;;;;;;;;;;;;;;;;;5077088;28;20363;-76
2022/08/23 07:01:55;;;;;;;;;;;;;;;;;;5094685;28;19996;-75
2022/08/23 07:04:28;;;;;;;;;;;;;;;;;;5076535;28;20367;-75
2022/08/23 07:06:54;;;;;;;;;;;;;;;;;;5094976;28;19919;-76
2022/08/23 07:09:19;;;;;;;;;;;;;;;;;;5060100;28;19908;-75
2022/08/23 07:11:45;;;;;;;;;;;;;;;;;;5076372;28;20256;-76
2022/08/23 07:14:10;;;;;;;;;;;;;;;;;;5094241;28;19912;-75
2022/08/23 07:16:36;;;;;;;;;;;;;;;;;;5076594;28;19916;-77
2022/08/23 07:19:01;;;;;;;;;;;;;;;;;;5076364;28;20302;-76
2022/08/23 07:21:26;;;;;;;;;;;;;;;;;;5076295;28;19962;-76
2022/08/23 07:23:52;;;;;;;;;;;;;;;;;;5076038;28;19916;-76
2022/08/23 07:26:18;;;;;;;;;;;;;;;;;;5076298;28;19965;-76
2022/08/23 07:28:43;;;;;;;;;;;;;;;;;;5076394;28;20356;-77
2022/08/23 07:31:09;;;;;;;;;;;;;;;;;;5076380;28;19920;-74
2022/08/23 07:33:35;;;;;;;;;;;;;;;;;;5059493;28;19920;-76
2022/08/23 07:36:05;;;;;;;;;;;;;;;;;;5076056;28;19916;-75
2022/08/23 07:38:30;;;;;;;;;;;;;;;;;;5076472;28;19912;-77
2022/08/23 07:40:56;;;;;;;;;;;;;;;;;;5059236;28;20298;-75
2022/08/23 07:43:22;;;;;;;;;;;;;;;;;;5075692;28;19916;-77
2022/08/23 07:45:47;;;;;;;;;;;;;;;;;;5059460;28;20015;-74
2022/08/23 07:48:13;;;;;;;;;;;;;;;;;;5076156;28;19919;-76
2022/08/23 07:50:51;;;;;;;;;;;;;;;;;;5059402;28;19918;-74
2022/08/23 07:53:16;;;;;;;;;;;;;;;;;;5059057;28;20382;-77
2022/08/23 07:55:42;;;;;;;;;;;;;;;;;;5075248;28;19985;-76
2022/08/23 07:58:45;;;;;;;;;;;;;;;;;;5014263;28;20037;-77
2022/08/23 08:01:29;;;;;;;;;;;;;;;;;;5014895;28;19913;-76
2022/08/23 08:03:55;;;;;;;;;;;;;;;;;;5049996;28;20340;-77
2022/08/23 08:06:25;;;;;;;;;;;;;;;;;;5059684;28;20321;-76
2022/08/23 08:08:51;;;;;;;;;;;;;;;;;;5075585;28;19965;-76
2022/08/23 08:11:17;;;;;;;;;;;;;;;;;;5075592;28;19912;-76
2022/08/23 08:13:42;;;;;;;;;;;;;;;;;;5059077;28;20271;-76
2022/08/23 08:16:08;;;;;;;;;;;;;;;;;;5075580;28;20002;-77
2022/08/23 08:18:36;;;;;;;;;;;;;;;;;;5093835;28;19916;-77
2022/08/23 08:21:33;;;;;;;;;;;;;;;;;;5040998;28;20408;-76
2022/08/23 08:24:04;;;;;;;;;;;;;;;;;;5075262;28;19912;-76
2022/08/23 08:26:40;;;;;;;;;;;;;;;;;;5075368;28;19919;-77
2022/08/23 08:29:05;;;;;;;;;;;;;;;;;;5058765;28;19912;-76
2022/08/23 08:31:35;;;;;;;;;;;;;;;;;;5075697;28;19916;-76
2022/08/23 08:34:00;;;;;;;;;;;;;;;;;;5075163;28;19924;-76
2022/08/23 08:36:26;;;;;;;;;;;;;;;;;;5058301;28;19938;-75
2022/08/23 08:38:51;;;;;;;;;;;;;;;;;;5074711;28;20299;-75
2022/08/23 08:41:19;;;;;;;;;;;;;;;;;;5074867;28;19912;-76
2022/08/23 08:43:45;;;;;;;;;;;;;;;;;;5057704;28;20294;-76
2022/08/23 08:46:11;;;;;;;;;;;;;;;;;;5058343;28;19916;-76
2022/08/23 08:48:36;;;;;;;;;;;;;;;;;;5074368;28;20319;-75
2022/08/23 08:51:02;;;;;;;;;;;;;;;;;;5074757;28;19916;-76
2022/08/23 08:53:28;;;;;;;;;;;;;;;;;;5057450;28;20433;-76
2022/08/23 08:56:13;;;;;;;;;;;;;;;;;;5077151;28;19943;-76
2022/08/23 08:58:38;;;;;;;;;;;;;;;;;;5074397;28;20362;-76
2022/08/23 09:01:04;;;;;;;;;;;;;;;;;;5074439;28;20386;-75
2022/08/23 09:03:29;;;;;;;;;;;;;;;;;;5057311;28;19908;-75
2022/08/23 09:05:55;;;;;;;;;;;;;;;;;;5058207;28;19919;-76
2022/08/23 09:08:20;;;;;;;;;;;;;;;;;;5075145;28;19913;-74
2022/08/23 09:10:45;;;;;;;;;;;;;;;;;;5042416;28;20007;-75
2022/08/23 09:13:11;;;;;;;;;;;;;;;;;;5074871;28;19927;-75
2022/08/23 09:15:36;;;;;;;;;;;;;;;;;;5058360;28;19912;-75
2022/08/23 09:18:02;;;;;;;;;;;;;;;;;;5093018;28;19963;-76
2022/08/23 09:20:28;;;;;;;;;;;;;;;;;;5059597;28;20367;-75
2022/08/23 09:22:56;;;;;;;;;;;;;;;;;;5075709;28;19916;-74
2022/08/23 09:25:27;;;;;;;;;;;;;;;;;;5058700;28;20371;-76
2022/08/23 09:28:04;;;;;;;;;;;;;;;;;;5057569;28;20409;-75
2022/08/23 09:30:29;;;;;;;;;;;;;;;;;;5074419;28;19912;-75
2022/08/23 09:32:55;;;;;;;;;;;;;;;;;;5073784;28;19912;-76
2022/08/23 09:35:20;;;;;;;;;;;;;;;;;;5074274;28;20467;-75
2022/08/23 09:38:06;;;;;;;;;;;;;;;;;;5073461;28;20363;-76
2022/08/23 09:40:32;;;;;;;;;;;;;;;;;;5074175;28;19944;-76
2022/08/23 09:42:58;;;;;;;;;;;;;;;;;;5073601;28;20010;-75
2022/08/23 09:45:23;;;;;;;;;;;;;;;;;;5091828;28;19912;-76
2022/08/23 09:47:48;;;;;;;;;;;;;;;;;;5073858;28;19934;-75
2022/08/23 09:50:15;;;;;;;;;;;;;;;;;;5073835;28;19918;-76
2022/08/23 09:52:41;;;;;;;;;;;;;;;;;;5073303;28;19916;-75
2022/08/23 09:55:06;;;;;;;;;;;;;;;;;;5073674;28;19943;-77
2022/08/23 09:57:37;;;;;;;;;;;;;;;;;;5064547;22;19928;-76
2022/08/23 10:00:02;;;;;;;;;;;;;;;;;;5037173;28;20003;-75
2022/08/23 10:02:37;;;;;;;;;;;;;;;;;;5054938;28;19917;-75
2022/08/23 10:05:11;;;;;;;;;;;;;;;;;;5038374;28;19912;-76
2022/08/23 10:07:37;;;;;;;;;;;;;;;;;;5033461;28;20387;-76
2022/08/23 10:10:03;;;;;;;;;;;;;;;;;;5033708;28;19913;-75
2022/08/23 10:12:28;;;;;;;;;;;;;;;;;;5051027;28;20397;-75
2022/08/23 10:14:53;;;;;;;;;;;;;;;;;;5017424;28;19913;-76
2022/08/23 10:17:19;;;;;;;;;;;;;;;;;;5051198;28;20343;-76
2022/08/23 10:19:44;;;;;;;;;;;;;;;;;;5017334;28;19912;-77
2022/08/23 10:22:10;;;;;;;;;;;;;;;;;;5036614;28;20407;-76
2022/08/23 10:24:40;;;;;;;;;;;;;;;;;;5036765;28;19913;-75
2022/08/23 10:29:35;;;;;;;;;;;;;;;;;;5037210;28;20380;-76
2022/08/23 10:29:51;;;;;;;;;;;;;;;;;;5054952;28;19948;-75
2022/08/23 10:32:17;;;;;;;;;;;;;;;;;;5037431;28;19920;-76
2022/08/23 10:34:50;;;;;;;;;;;;;;;;;;5036851;28;19913;-75
2022/08/23 10:37:15;;;;;;;;;;;;;;;;;;5036692;28;19949;-76
2022/08/23 10:39:40;;;;;;;;;;;;;;;;;;5036856;28;19912;-76
2022/08/23 10:42:06;;;;;;;;;;;;;;;;;;5054764;28;19913;-75
2022/08/23 10:44:33;;;;;;;;;;;;;;;;;;5036536;28;20400;-77
2022/08/23 10:46:59;;;;;;;;;;;;;;;;;;5036982;28;20078;-76
2022/08/23 10:49:25;;;;;;;;;;;;;;;;;;5036678;28;20023;-75
2022/08/23 10:51:50;;;;;;;;;;;;;;;;;;5053061;28;20003;-76
2022/08/23 10:54:17;;;;;;;;;;;;;;;;;;5019888;28;20006;-75
2022/08/23 10:56:43;;;;;;;;;;;;;;;;;;5036574;28;19917;-75
2022/08/23 10:59:09;;;;;;;;;;;;;;;;;;5036601;28;20007;-76
2022/08/23 11:01:34;;;;;;;;;;;;;;;;;;5036520;28;19999;-77
2022/08/23 11:04:00;;;;;;;;;;;;;;;;;;5036168;28;20243;-75
2022/08/23 11:06:28;;;;;;;;;;;;;;;;;;5052621;28;20388;-75
2022/08/23 11:08:54;;;;;;;;;;;;;;;;;;5036528;28;19935;-75
2022/08/23 11:11:20;;;;;;;;;;;;;;;;;;5036303;28;20407;-75
2022/08/23 11:13:46;;;;;;;;;;;;;;;;;;5035711;28;19935;-75
2022/08/23 11:16:11;;;;;;;;;;;;;;;;;;5019560;28;20398;-74
2022/08/23 11:18:37;;;;;;;;;;;;;;;;;;5036349;28;19936;-76
2022/08/23 11:21:03;;;;;;;;;;;;;;;;;;5036322;28;20368;-75
2022/08/23 11:23:48;;;;;;;;;;;;;;;;;;5035816;28;19919;-76
2022/08/23 11:26:14;;;;;;;;;;;;;;;;;;5036134;28;19972;-75
2022/08/23 11:28:39;;;;;;;;;;;;;;;;;;5036193;28;20379;-76
2022/08/23 11:31:04;;;;;;;;;;;;;;;;;;5035727;28;19913;-75
2022/08/23 11:33:31;;;;;;;;;;;;;;;;;;5052188;28;19913;-77
2022/08/23 11:35:56;;;;;;;;;;;;;;;;;;5035803;28;20380;-76
2022/08/23 11:38:22;;;;;;;;;;;;;;;;;;5035893;28;19916;-76
2022/08/23 11:40:47;;;;;;;;;;;;;;;;;;5035845;28;20394;-76
2022/08/23 11:43:13;;;;;;;;;;;;;;;;;;5035284;28;19913;-76
2022/08/23 11:45:39;;;;;;;;;;;;;;;;;;5052212;28;19913;-76
2022/08/23 11:48:04;;;;;;;;;;;;;;;;;;5035437;28;20308;-76
2022/08/23 11:50:30;;;;;;;;;;;;;;;;;;5053344;28;19909;-76
2022/08/23 11:52:55;;;;;;;;;;;;;;;;;;5035408;28;19924;-76
2022/08/23 11:55:21;;;;;;;;;;;;;;;;;;5053434;28;19916;-76
2022/08/23 11:57:46;;;;;;;;;;;;;;;;;;5053177;28;20288;-76
2022/08/23 12:00:12;;;;;;;;;;;;;;;;;;5052252;28;19920;-74
2022/08/23 12:02:37;;;;;;;;;;;;;;;;;;5035148;28;19959;-76
2022/08/23 12:05:03;;;;;;;;;;;;;;;;;;5035468;28;19931;-74
2022/08/23 12:07:28;;;;;;;;;;;;;;;;;;5053168;28;19913;-75
2022/08/23 12:09:54;;;;;;;;;;;;;;;;;;5035748;28;19913;-76
2022/08/23 12:12:20;;;;;;;;;;;;;;;;;;5053180;28;19956;-75
2022/08/23 12:14:45;;;;;;;;;;;;;;;;;;5052857;28;19916;-77
2022/08/23 12:17:10;;;;;;;;;;;;;;;;;;5052710;28;20046;-76
2022/08/23 12:19:36;;;;;;;;;;;;;;;;;;5035018;28;19944;-76
2022/08/23 12:22:01;;;;;;;;;;;;;;;;;;5052692;28;20521;-76
2022/08/23 12:24:26;;;;;;;;;;;;;;;;;;5034538;28;19913;-75
2022/08/23 12:26:52;;;;;;;;;;;;;;;;;;5052584;28;19919;-77
2022/08/23 12:29:17;;;;;;;;;;;;;;;;;;5051442;28;19919;-75
2022/08/23 12:31:43;;;;;;;;;;;;;;;;;;5051443;28;19919;-76
2022/08/23 12:34:08;;;;;;;;;;;;;;;;;;5052190;28;20004;-75
2022/08/23 12:36:34;;;;;;;;;;;;;;;;;;5052747;28;20347;-75
2022/08/23 12:39:00;;;;;;;;;;;;;;;;;;5052498;28;19913;-74
2022/08/23 12:41:26;;;;;;;;;;;;;;;;;;5052627;28;19939;-76
2022/08/23 12:43:51;;;;;;;;;;;;;;;;;;5034259;28;20376;-76
2022/08/23 12:46:17;;;;;;;;;;;;;;;;;;5052497;28;20011;-75
2022/08/23 12:48:42;;;;;;;;;;;;;;;;;;5034566;28;20434;-75
2022/08/23 12:51:08;;;;;;;;;;;;;;;;;;5052974;28;19924;-76
2022/08/23 12:53:33;;;;;;;;;;;;;;;;;;5037960;28;19946;-76
2022/08/23 12:55:58;;;;;;;;;;;;;;;;;;5038923;28;20281;-75
2022/08/23 12:58:24;;;;;;;;;;;;;;;;;;5021050;28;20406;-75
2022/08/23 13:00:49;;;;;;;;;;;;;;;;;;5055044;28;20017;-75
2022/08/23 13:03:15;;;;;;;;;;;;;;;;;;5053694;28;20372;-77
2022/08/23 13:05:40;;;;;;;;;;;;;;;;;;5055393;28;20329;-76
2022/08/23 13:08:05;;;;;;;;;;;;;;;;;;5036775;28;19913;-76
2022/08/23 13:10:31;;;;;;;;;;;;;;;;;;5035916;28;20012;-76
2022/08/23 13:12:56;;;;;;;;;;;;;;;;;;5051713;28;19912;-76
2022/08/23 13:15:22;;;;;;;;;;;;;;;;;;5034082;28;20430;-76
2022/08/23 13:17:47;;;;;;;;;;;;;;;;;;5051602;28;19920;-76
2022/08/23 13:20:12;;;;;;;;;;;;;;;;;;5051841;28;19913;-77
2022/08/23 13:22:38;;;;;;;;;;;;;;;;;;5050156;28;20375;-77
2022/08/23 13:25:06;;;;;;;;;;;;;;;;;;5051938;28;19999;-77
2022/08/23 13:27:31;;;;;;;;;;;;;;;;;;5050540;28;19913;-76
2022/08/23 13:29:57;;;;;;;;;;;;;;;;;;5017568;28;19913;-77
2022/08/23 13:32:22;;;;;;;;;;;;;;;;;;5051503;28;19912;-76
2022/08/23 13:34:52;;;;;;;;;;;;;;;;;;5051641;28;19968;-77
2022/08/23 13:37:17;;;;;;;;;;;;;;;;;;5052015;28;19917;-76
2022/08/23 13:39:42;;;;;;;;;;;;;;;;;;5034066;28;20299;-76
2022/08/23 13:42:08;;;;;;;;;;;;;;;;;;5034007;28;19920;-76
2022/08/23 13:44:34;;;;;;;;;;;;;;;;;;5033305;28;19913;-76
2022/08/23 13:46:59;;;;;;;;;;;;;;;;;;5034248;28;19929;-76
2022/08/23 13:49:27;;;;;;;;;;;;;;;;;;5051682;28;20292;-76
2022/08/23 13:51:52;;;;;;;;;;;;;;;;;;5034018;28;20368;-77
2022/08/23 13:54:18;;;;;;;;;;;;;;;;;;5033472;28;19912;-77
2022/08/23 13:56:43;;;;;;;;;;;;;;;;;;5053935;28;19916;-77
2022/08/23 13:59:08;;;;;;;;;;;;;;;;;;5037541;28;19996;-76
2022/08/23 14:01:34;;;;;;;;;;;;;;;;;;5037351;28;19913;-76
2022/08/23 14:03:59;;;;;;;;;;;;;;;;;;5054856;28;19913;-76
2022/08/23 14:06:25;;;;;;;;;;;;;;;;;;5020996;28;19989;-77
2022/08/23 14:08:50;;;;;;;;;;;;;;;;;;5037135;28;19909;-77
2022/08/23 14:11:15;;;;;;;;;;;;;;;;;;5053677;28;19921;-76
2022/08/23 14:13:41;;;;;;;;;;;;;;;;;;5053412;28;19913;-77
2022/08/23 14:16:06;;;;;;;;;;;;;;;;;;5037156;28;19913;-75
2022/08/23 14:18:32;;;;;;;;;;;;;;;;;;5054566;28;19917;-76
2022/08/23 14:20:58;;;;;;;;;;;;;;;;;;5037359;28;19919;-76
2022/08/23 14:23:24;;;;;;;;;;;;;;;;;;5053556;28;19917;-76
2022/08/23 14:25:49;;;;;;;;;;;;;;;;;;5055218;28;19912;-77
2022/08/23 14:28:14;;;;;;;;;;;;;;;;;;5055071;28;19912;-75
2022/08/23 14:30:40;;;;;;;;;;;;;;;;;;5054923;28;20396;-75
2022/08/23 14:33:05;;;;;;;;;;;;;;;;;;5054292;28;19923;-76
2022/08/23 14:35:30;;;;;;;;;;;;;;;;;;5053553;28;19920;-76
2022/08/23 14:37:56;;;;;;;;;;;;;;;;;;5054730;28;20388;-76
2022/08/23 14:40:21;;;;;;;;;;;;;;;;;;5020643;28;19913;-76
2022/08/23 14:42:47;;;;;;;;;;;;;;;;;;5036807;28;20023;-77
2022/08/23 14:45:12;;;;;;;;;;;;;;;;;;5054542;28;19913;-77
2022/08/23 14:47:38;;;;;;;;;;;;;;;;;;5020413;28;19919;-76
2022/08/23 14:50:03;;;;;;;;;;;;;;;;;;5037305;28;19909;-76
2022/08/23 14:52:28;;;;;;;;;;;;;;;;;;5019926;28;19919;-76
2022/08/23 14:54:54;;;;;;;;;;;;;;;;;;5054547;28;19912;-75
2022/08/23 14:57:19;;;;;;;;;;;;;;;;;;5053215;28;19917;-76
2022/08/23 14:59:45;;;;;;;;;;;;;;;;;;5054326;28;19919;-75
2022/08/23 15:02:10;;;;;;;;;;;;;;;;;;5054331;28;20105;-75
2022/08/23 15:04:35;;;;;;;;;;;;;;;;;;5036427;28;20371;-76
2022/08/23 15:07:01;;;;;;;;;;;;;;;;;;5036153;28;19999;-76
2022/08/23 15:09:26;;;;;;;;;;;;;;;;;;5019646;28;19967;-76
2022/08/23 15:11:53;;;;;;;;;;;;;;;;;;5054043;28;19913;-77
2022/08/23 15:14:19;;;;;;;;;;;;;;;;;;5053731;28;19954;-75
2022/08/23 15:16:44;;;;;;;;;;;;;;;;;;5036329;28;19921;-75
2022/08/23 15:19:09;;;;;;;;;;;;;;;;;;5036369;28;19981;-76
2022/08/23 15:21:35;;;;;;;;;;;;;;;;;;5035946;28;19919;-76
2022/08/23 15:24:00;;;;;;;;;;;;;;;;;;5035811;28;19920;-76
2022/08/23 15:26:26;;;;;;;;;;;;;;;;;;5052515;28;19916;-76
2022/08/23 15:28:51;;;;;;;;;;;;;;;;;;5053726;28;20383;-76
2022/08/23 15:31:17;;;;;;;;;;;;;;;;;;5036099;28;19948;-76
2022/08/23 15:33:48;;;;;;;;;;;;;;;;;;5035561;28;20283;-77
2022/08/23 15:36:14;;;;;;;;;;;;;;;;;;5053447;28;19913;-77
2022/08/23 15:38:40;;;;;;;;;;;;;;;;;;5053229;28;19913;-76
2022/08/23 15:41:05;;;;;;;;;;;;;;;;;;5052403;28;20280;-76
2022/08/23 15:43:32;;;;;;;;;;;;;;;;;;5052947;28;20235;-76
2022/08/23 15:45:58;;;;;;;;;;;;;;;;;;5052252;28;19913;-77
2022/08/23 15:48:23;;;;;;;;;;;;;;;;;;5052021;28;19909;-76
2022/08/23 15:50:49;;;;;;;;;;;;;;;;;;5035520;28;20011;-76
2022/08/23 15:53:14;;;;;;;;;;;;;;;;;;5034993;28;19920;-77
2022/08/23 15:58:14;;;;;;;;;;;;;;;;;;4991090;28;19949;-76
2022/08/23 16:00:40;;;;;;;;;;;;;;;;;;4994308;28;20329;-75
2022/08/23 16:03:05;;;;;;;;;;;;;;;;;;4993707;28;19936;-76
2022/08/23 16:05:31;;;;;;;;;;;;;;;;;;4976672;28;19913;-77
2022/08/23 16:07:56;;;;;;;;;;;;;;;;;;4994171;28;19913;-76
2022/08/23 16:10:21;;;;;;;;;;;;;;;;;;4976640;28;19918;-77
2022/08/23 16:12:47;;;;;;;;;;;;;;;;;;4992166;28;20329;-76
2022/08/23 16:15:12;;;;;;;;;;;;;;;;;;4976366;28;19996;-75
2022/08/23 16:17:38;;;;;;;;;;;;;;;;;;4976323;28;19918;-76
2022/08/23 16:20:03;;;;;;;;;;;;;;;;;;4993382;28;19917;-77
2022/08/23 16:22:29;;;;;;;;;;;;;;;;;;4975993;28;20363;-76
2022/08/23 16:24:55;;;;;;;;;;;;;;;;;;4993555;28;19917;-77
2022/08/23 16:27:20;;;;;;;;;;;;;;;;;;4993580;28;19913;-76
2022/08/23 16:29:45;;;;;;;;;;;;;;;;;;4993962;28;20325;-77
2022/08/23 16:32:11;;;;;;;;;;;;;;;;;;4993550;28;19914;-76
2022/08/23 16:34:36;;;;;;;;;;;;;;;;;;4975827;28;20508;-76
2022/08/23 16:37:03;;;;;;;;;;;;;;;;;;4993244;28;19985;-75
2022/08/23 16:39:28;;;;;;;;;;;;;;;;;;4975950;28;19976;-76
2022/08/23 16:41:53;;;;;;;;;;;;;;;;;;4993379;28;20023;-76
2022/08/23 16:44:19;;;;;;;;;;;;;;;;;;4992266;28;19921;-76
2022/08/23 16:46:45;;;;;;;;;;;;;;;;;;4976078;28;19913;-76
2022/08/23 16:49:10;;;;;;;;;;;;;;;;;;4976186;28;20023;-75
2022/08/23 16:51:35;;;;;;;;;;;;;;;;;;4993858;28;19921;-75
2022/08/23 16:54:01;;;;;;;;;;;;;;;;;;4993121;28;20324;-76